Time;durP1;ratioP1;P1;durP2;ratioP2;P2;SDS_P1;SDS_P2;PMS_P1;PMS_P2;Temp;Humidity;BMP_temperature;BMP_pressure;BME280_temperature;BME280_humidity;BME280_pressure;Samples;Min_cycle;Max_cycle;Signal;HPM_P1;HPM_P2
2023/04/20 00:00:52;;;;;;;14.75;8.30;;;;;;;12.18;83.51;99296.25;3138272;28;20600;-71
2023/04/20 00:02:25;;;;;;;14.52;8.32;;;;;;;12.17;83.30;99300.63;3140816;28;20056;-71
2023/04/20 00:03:56;;;;;;;12.35;7.78;;;;;;;12.00;83.03;99272.91;3138714;28;20048;-72
2023/04/20 00:05:28;;;;;;;12.23;7.97;;;;;;;12.14;83.01;99292.16;3136142;28;20048;-71
2023/04/20 00:07:00;;;;;;;14.18;8.55;;;;;;;12.12;83.17;99294.00;3144373;28;20049;-72
2023/04/20 00:08:31;;;;;;;14.52;7.97;;;;;;;12.10;83.04;99290.63;3144418;28;20114;-72
2023/04/20 00:10:04;;;;;;;16.83;9.02;;;;;;;12.07;83.30;99287.31;3144318;28;20105;-72
2023/04/20 00:11:36;;;;;;;14.20;8.55;;;;;;;12.05;82.96;99291.75;3139960;28;20111;-72
2023/04/20 00:13:08;;;;;;;13.63;7.90;;;;;;;12.04;83.01;99292.72;3144742;28;20056;-73
2023/04/20 00:14:40;;;;;;;14.48;9.23;;;;;;;12.02;83.10;99289.34;3144475;28;20052;-73
2023/04/20 00:16:11;;;;;;;14.57;8.60;;;;;;;11.99;83.40;99292.13;3144366;28;20052;-74
2023/04/20 00:17:45;;;;;;;15.10;8.75;;;;;;;11.98;83.28;99285.25;3143815;28;20078;-73
2023/04/20 00:19:16;;;;;;;;;;;;;;;11.87;83.07;99284.19;3134498;28;20052;-74
2023/04/20 00:20:48;;;;;;;15.27;8.50;;;;;;;11.84;83.19;99285.19;3141397;28;19931;-73
2023/04/20 00:22:20;;;;;;;15.30;8.07;;;;;;;11.83;83.37;99286.09;3144264;28;20107;-74
2023/04/20 00:23:52;;;;;;;17.08;9.23;;;;;;;11.79;83.39;99285.44;3143810;28;20053;-73
2023/04/20 00:25:23;;;;;;;16.23;9.50;;;;;;;11.78;83.20;99285.53;3144637;28;20052;-74
2023/04/20 00:26:55;;;;;;;14.23;8.98;;;;;;;11.67;83.40;99269.66;3139127;28;20064;-73
2023/04/20 00:28:27;;;;;;;12.57;8.23;;;;;;;11.70;83.28;99272.09;3144513;28;20052;-73
2023/04/20 00:29:59;;;;;;;14.23;8.65;;;;;;;11.72;83.73;99285.91;3139742;28;20044;-74
2023/04/20 00:31:31;;;;;;;15.00;8.63;;;;;;;11.70;83.56;99285.97;3144479;28;20055;-74
2023/04/20 00:33:05;;;;;;;12.65;8.32;;;;;;;11.68;83.80;99289.59;3139930;28;20118;-73
2023/04/20 00:34:37;;;;;;;12.88;8.30;;;;;;;11.65;83.85;99272.34;3141981;28;20135;-74
2023/04/20 00:36:09;;;;;;;12.20;7.88;;;;;;;11.64;83.59;99280.28;3134180;28;20135;-73
2023/04/20 00:37:41;;;;;;;14.35;9.00;;;;;;;11.61;83.96;99284.72;3144064;28;20056;-74
2023/04/20 00:39:13;;;;;;;15.48;7.32;;;;;;;11.56;83.88;99273.72;3135138;28;20099;-74
2023/04/20 00:40:47;;;;;;;13.15;7.78;;;;;;;11.58;84.12;99277.09;3140644;28;20095;-74
2023/04/20 00:42:19;;;;;;;15.43;8.50;;;;;;;11.58;84.12;99281.47;3144113;28;20441;-73
2023/04/20 00:43:52;;;;;;;11.65;7.35;;;;;;;11.58;83.80;99282.31;3119437;28;20442;-73
2023/04/20 00:45:24;;;;;;;13.15;8.20;;;;;;;11.57;83.92;99285.00;3143633;28;20123;-73
2023/04/20 00:46:56;;;;;;;12.82;8.20;;;;;;;11.54;83.87;99280.81;3137528;28;20066;-73
2023/04/20 00:48:29;;;;;;;11.55;7.63;;;;;;;11.51;83.65;99286.19;3142386;28;20048;-72
2023/04/20 00:50:01;;;;;;;;;;;;;;;11.42;83.85;99286.72;3136770;28;20087;-71
2023/04/20 00:51:34;;;;;;;12.48;7.72;;;;;;;11.42;83.76;99285.88;3141132;28;20364;-73
2023/04/20 00:53:07;;;;;;;13.38;7.40;;;;;;;11.39;83.65;99282.53;3145630;28;20050;-73
2023/04/20 00:54:38;;;;;;;12.02;7.32;;;;;;;11.34;83.48;99275.88;3146433;28;20049;-73
2023/04/20 00:56:12;;;;;;;11.65;7.45;;;;;;;11.37;83.47;99284.38;3141870;28;20127;-73
2023/04/20 00:57:44;;;;;;;12.98;7.10;;;;;;;11.16;83.46;99249.94;3146672;28;20044;-72
2023/04/20 00:59:15;;;;;;;15.65;6.95;;;;;;;11.35;83.40;99281.00;3143122;28;20057;-72
2023/04/20 01:00:47;;;;;;;16.58;7.28;;;;;;;11.29;83.33;99277.91;3134599;28;20121;-73
2023/04/20 01:02:19;;;;;;;11.60;6.85;;;;;;;11.32;83.26;99286.38;3138015;28;20056;-72
2023/04/20 01:03:53;;;;;;;12.52;7.30;;;;;;;11.33;83.43;99287.25;3143308;28;20060;-72
2023/04/20 01:05:25;;;;;;;11.77;6.68;;;;;;;11.31;83.22;99283.88;3136764;28;20506;-71
2023/04/20 01:06:56;;;;;;;11.95;6.53;;;;;;;11.20;83.21;99266.22;3145947;28;20482;-72
2023/04/20 01:08:28;;;;;;;12.48;6.43;;;;;;;11.30;82.98;99277.00;3146348;28;20132;-72
2023/04/20 01:10:00;;;;;;;9.13;5.85;;;;;;;11.30;82.90;99285.66;3141727;28;20051;-72
2023/04/20 01:11:31;;;;;;;8.68;5.38;;;;;;;11.30;82.71;99277.84;3143363;28;20571;-73
2023/04/20 01:13:03;;;;;;;10.73;5.75;;;;;;;11.17;82.66;99261.19;3135365;28;20091;-72
2023/04/20 01:14:35;;;;;;;11.18;6.13;;;;;;;11.29;82.52;99277.91;3142878;28;20105;-73
2023/04/20 01:16:06;;;;;;;13.30;6.22;;;;;;;11.29;82.37;99286.56;3144812;28;20048;-72
2023/04/20 01:17:38;;;;;;;10.98;6.28;;;;;;;11.28;82.46;99279.69;3146211;28;20447;-72
2023/04/20 01:19:11;;;;;;;10.07;5.47;;;;;;;11.26;82.00;99278.91;3146052;28;20056;-72
2023/04/20 01:20:43;;;;;;;10.32;6.30;;;;;;;11.24;82.26;99277.31;3135700;28;20509;-72
2023/04/20 01:22:17;;;;;;;9.55;5.65;;;;;;;11.26;82.11;99280.69;3137519;28;20058;-72
2023/04/20 01:23:48;;;;;;;10.85;5.70;;;;;;;11.26;81.84;99280.69;3137515;28;20087;-72
2023/04/20 01:25:22;;;;;;;11.20;6.07;;;;;;;11.13;81.98;99257.09;3132101;28;20052;-72
2023/04/20 01:26:54;;;;;;;8.68;5.68;;;;;;;11.17;81.75;99261.19;3136158;28;20150;-72
2023/04/20 01:28:25;;;;;;;7.70;5.40;;;;;;;11.27;81.86;99274.53;3136514;28;20095;-72
2023/04/20 01:29:57;;;;;;;8.95;5.60;;;;;;;11.29;82.04;99277.91;3129279;28;20080;-72
2023/04/20 01:31:29;;;;;;;9.07;5.72;;;;;;;11.28;81.66;99269.25;3137136;28;20487;-72
2023/04/20 01:33:01;;;;;;;9.93;6.10;;;;;;;11.26;81.41;99272.88;3137199;28;20118;-72
2023/04/20 01:34:33;;;;;;;9.48;6.05;;;;;;;11.35;81.58;99274.94;3134247;28;20079;-72
2023/04/20 01:36:06;;;;;;;11.00;6.43;;;;;;;11.36;81.57;99274.03;3126152;28;20071;-72
2023/04/20 01:37:40;;;;;;;12.50;6.25;;;;;;;11.37;81.38;99275.72;3137153;28;20056;-72
2023/04/20 01:39:12;;;;;;;10.35;6.05;;;;;;;11.37;81.26;99273.94;3128027;28;20132;-72
2023/04/20 01:40:44;;;;;;;11.20;6.15;;;;;;;11.37;80.90;99273.09;3136407;28;20514;-72
2023/04/20 01:42:17;;;;;;;9.25;5.40;;;;;;;11.38;80.71;99269.56;3135793;28;20053;-71
2023/04/20 01:43:48;;;;;;;10.10;6.00;;;;;;;11.39;80.60;99276.47;3123859;28;20136;-72
2023/04/20 01:45:20;;;;;;;9.82;6.15;;;;;;;11.33;80.36;99263.78;3134534;28;20048;-72
2023/04/20 01:46:52;;;;;;;11.15;5.95;;;;;;;11.39;80.22;99272.09;3136404;28;20048;-72
2023/04/20 01:48:23;;;;;;;8.27;6.20;;;;;;;11.39;80.26;99261.66;3133766;28;20286;-72
2023/04/20 01:49:55;;;;;;;10.75;6.15;;;;;;;11.28;80.01;99243.19;3134393;28;20099;-71
2023/04/20 01:51:28;;;;;;;8.07;5.45;;;;;;;11.42;79.84;99271.09;3134576;28;20591;-71
2023/04/20 01:53:00;;;;;;;8.15;5.93;;;;;;;11.43;79.54;99264.94;3136670;28;20142;-71
2023/04/20 01:54:32;;;;;;;9.35;6.13;;;;;;;11.45;79.64;99270.06;3141548;28;20060;-71
2023/04/20 01:56:05;;;;;;;9.98;5.55;;;;;;;11.48;79.40;99264.69;3145301;28;20510;-73
2023/04/20 01:57:36;;;;;;;9.95;6.35;;;;;;;11.48;79.06;99264.69;3142102;28;20052;-72
2023/04/20 01:59:07;;;;;;;11.27;6.72;;;;;;;11.46;78.55;99258.72;3146021;28;20102;-72
2023/04/20 02:00:39;;;;;;;9.32;6.78;;;;;;;11.49;78.21;99264.59;3146045;28;20040;-71
2023/04/20 02:02:11;;;;;;;10.95;6.25;;;;;;;11.47;77.90;99263.81;3142596;28;20048;-71
2023/04/20 02:03:43;;;;;;;12.10;6.72;;;;;;;11.47;77.69;99260.38;3145566;28;20461;-71
2023/04/20 02:05:14;;;;;;;11.20;6.93;;;;;;;11.52;77.53;99266.19;3140278;28;20041;-71
2023/04/20 02:06:45;;;;;;;9.35;6.18;;;;;;;11.48;77.12;99252.47;3145766;28;20052;-71
2023/04/20 02:08:18;;;;;;;9.98;6.57;;;;;;;11.52;76.87;99267.00;3141600;28;20053;-70
2023/04/20 02:09:50;;;;;;;13.23;6.82;;;;;;;11.52;76.86;99261.78;3145746;28;20139;-72
2023/04/20 02:11:21;;;;;;;10.68;6.75;;;;;;;11.51;76.59;99260.13;3138953;28;20578;-71
2023/04/20 02:12:53;;;;;;;13.80;6.85;;;;;;;11.52;76.48;99259.19;3145038;28;20052;-71
2023/04/20 02:14:25;;;;;;;11.57;6.47;;;;;;;11.54;76.48;99266.94;3145357;28;20053;-73
2023/04/20 02:15:57;;;;;;;10.15;6.70;;;;;;;11.52;76.54;99263.56;3145613;28;20479;-72
2023/04/20 02:17:31;;;;;;;9.82;6.80;;;;;;;11.51;76.42;99267.94;3136021;28;20052;-70
2023/04/20 02:19:03;;;;;;;10.18;6.65;;;;;;;11.49;76.14;99261.97;3142490;28;20049;-71
2023/04/20 02:20:34;;;;;;;10.80;6.85;;;;;;;11.52;76.14;99266.19;3143253;28;20079;-71
2023/04/20 02:22:06;;;;;;;11.35;6.65;;;;;;;11.51;76.04;99272.34;3145399;28;20045;-71
2023/04/20 02:23:39;;;;;;;12.35;6.45;;;;;;;11.53;75.90;99273.91;3140563;28;20048;-71
2023/04/20 02:25:11;;;;;;;11.60;6.78;;;;;;;11.53;76.16;99273.06;3140641;28;20124;-70
2023/04/20 02:26:43;;;;;;;9.32;6.53;;;;;;;11.53;75.81;99273.06;3137561;28;20040;-70
2023/04/20 02:28:15;;;;;;;8.77;6.50;;;;;;;11.54;75.36;99270.38;3145582;28;20101;-69
2023/04/20 02:29:46;;;;;;;9.77;6.57;;;;;;;11.54;75.11;99273.00;3141210;28;20157;-69
2023/04/20 02:31:18;;;;;;;15.93;6.75;;;;;;;11.54;74.97;99275.59;3145512;28;20506;-69
2023/04/20 02:32:50;;;;;;;9.02;6.43;;;;;;;11.50;75.05;99263.63;3145297;28;20505;-70
2023/04/20 02:34:22;;;;;;;9.13;6.75;;;;;;;11.53;74.86;99273.91;3144712;28;21007;-69
2023/04/20 02:35:53;;;;;;;10.90;6.93;;;;;;;11.56;74.89;99272.88;3132938;28;20159;-69
2023/04/20 02:37:26;;;;;;;12.43;7.03;;;;;;;11.56;74.68;99272.88;3124557;28;20053;-68
2023/04/20 02:38:59;;;;;;;9.93;6.57;;;;;;;11.58;74.56;99281.47;3136846;28;20565;-69
2023/04/20 02:40:31;;;;;;;11.45;6.00;;;;;;;11.57;74.31;99279.78;3144299;28;20067;-68
2023/04/20 02:42:02;;;;;;;8.50;6.00;;;;;;;11.57;74.15;99271.97;3141288;28;20045;-68
2023/04/20 02:43:35;;;;;;;10.35;6.65;;;;;;;11.58;73.75;99271.03;3142842;28;20055;-70
2023/04/20 02:45:07;;;;;;;15.35;7.88;;;;;;;11.58;73.68;99273.66;3130839;28;20055;-69
2023/04/20 02:46:39;;;;;;;11.50;7.15;;;;;;;11.58;73.33;99271.88;3138569;28;20063;-68
2023/04/20 02:48:12;;;;;;;9.73;6.67;;;;;;;11.60;73.22;99274.41;3140849;28;20077;-70
2023/04/20 02:49:43;;;;;;;10.68;7.15;;;;;;;11.59;72.90;99281.41;3137178;28;20376;-69
2023/04/20 02:51:15;;;;;;;10.68;7.25;;;;;;;11.52;72.76;99261.78;3139359;28;20378;-71
2023/04/20 02:52:46;;;;;;;14.05;7.43;;;;;;;11.59;72.70;99275.31;3139045;28;20513;-72
2023/04/20 02:54:19;;;;;;;14.07;7.28;;;;;;;11.58;72.66;99279.69;3138325;28;20057;-70
2023/04/20 02:55:50;;;;;;;10.15;6.50;;;;;;;11.39;72.36;99246.03;3145044;28;20113;-70
2023/04/20 02:57:24;;;;;;;11.57;7.03;;;;;;;11.55;72.16;99276.44;3145341;28;20056;-72
2023/04/20 02:58:54;;;;;;;10.63;6.97;;;;;;;11.57;72.13;99277.19;3144841;28;20079;-72
2023/04/20 03:00:26;;;;;;;11.10;6.93;;;;;;;11.57;72.06;99274.59;3145644;28;20445;-71
2023/04/20 03:01:58;;;;;;;9.93;6.53;;;;;;;11.56;72.00;99284.16;3141439;28;20053;-72
2023/04/20 03:03:29;;;;;;;9.57;7.13;;;;;;;11.45;72.31;99260.47;3145034;28;20445;-72
2023/04/20 03:05:02;;;;;;;11.95;6.97;;;;;;;11.54;72.01;99280.81;3140105;28;20049;-71
2023/04/20 03:06:35;;;;;;;11.38;7.05;;;;;;;11.51;71.68;99274.94;3141612;28;20076;-71
2023/04/20 03:08:07;;;;;;;14.52;7.45;;;;;;;11.43;71.81;99262.31;3130919;28;20057;-72
2023/04/20 03:09:39;;;;;;;14.18;7.40;;;;;;;11.48;71.36;99275.13;3141565;28;20740;-72
2023/04/20 03:11:11;;;;;;;11.75;7.15;;;;;;;11.47;71.49;99274.25;3133324;28;20049;-71
2023/04/20 03:12:43;;;;;;;11.45;7.07;;;;;;;11.47;71.35;99276.03;3142427;28;20049;-72
2023/04/20 03:14:15;;;;;;;13.45;7.63;;;;;;;11.48;71.25;99275.13;3144550;28;20075;-71
2023/04/20 03:15:47;;;;;;;15.32;8.18;;;;;;;11.47;71.19;99279.47;3144358;28;20525;-70
2023/04/20 03:17:17;;;;;;;14.15;7.75;;;;;;;11.40;71.26;99265.09;3145129;28;20518;-71
2023/04/20 03:18:49;;;;;;;14.80;7.97;;;;;;;11.45;71.30;99276.13;3144978;28;20131;-70
2023/04/20 03:20:21;;;;;;;13.05;7.90;;;;;;;11.41;71.42;99274.59;3142690;28;20531;-70
2023/04/20 03:21:53;;;;;;;10.82;7.38;;;;;;;11.37;70.95;99273.94;3140630;28;20192;-71
2023/04/20 03:23:25;;;;;;;12.48;7.50;;;;;;;11.41;71.30;99277.22;3145325;28;20106;-70
2023/04/20 03:24:58;;;;;;;15.98;7.90;;;;;;;11.40;71.36;99278.16;3144877;28;20121;-72
2023/04/20 03:26:30;;;;;;;11.15;7.60;;;;;;;11.36;70.95;99267.06;3144810;28;20237;-72
2023/04/20 03:28:02;;;;;;;11.38;7.20;;;;;;;11.38;70.91;99273.00;3144835;28;20119;-71
2023/04/20 03:29:34;;;;;;;14.45;7.88;;;;;;;11.37;70.93;99273.94;3141349;28;20792;-72
2023/04/20 03:31:05;;;;;;;12.27;7.22;;;;;;;11.36;70.86;99267.06;3144724;28;20438;-73
2023/04/20 03:32:38;;;;;;;13.77;7.38;;;;;;;11.35;70.88;99262.75;3144777;28;20052;-72
2023/04/20 03:34:10;;;;;;;13.77;7.07;;;;;;;11.33;70.79;99266.41;3145002;28;20418;-70
2023/04/20 03:35:41;;;;;;;12.70;7.03;;;;;;;11.33;70.94;99262.03;3133325;28;20122;-70
2023/04/20 03:37:15;;;;;;;12.35;7.97;;;;;;;11.33;70.88;99266.41;3143992;28;20509;-71
2023/04/20 03:38:46;;;;;;;12.95;7.93;;;;;;;11.30;70.63;99261.34;3137671;28;20815;-71
2023/04/20 03:40:20;;;;;;;12.00;7.72;;;;;;;11.29;70.79;99263.09;3143141;28;20064;-72
2023/04/20 03:41:51;;;;;;;12.40;7.47;;;;;;;11.28;70.63;99268.41;3144611;28;20052;-70
2023/04/20 03:43:23;;;;;;;12.35;8.55;;;;;;;11.21;70.42;99257.50;3144789;28;20067;-69
2023/04/20 03:44:55;;;;;;;12.52;6.88;;;;;;;11.27;70.29;99271.94;3129829;28;20625;-70
2023/04/20 03:46:27;;;;;;;10.43;7.05;;;;;;;11.28;70.48;99268.41;3136589;28;20135;-71
2023/04/20 03:47:58;;;;;;;10.23;7.20;;;;;;;11.28;70.37;99276.25;3141658;28;20097;-70
2023/04/20 03:49:30;;;;;;;13.57;7.43;;;;;;;11.28;70.25;99274.47;3134063;28;20106;-69
2023/04/20 03:51:02;;;;;;;11.40;7.28;;;;;;;11.28;70.13;99271.03;3137800;28;20502;-69
2023/04/20 03:52:34;;;;;;;12.02;6.85;;;;;;;11.28;70.03;99273.63;3144571;28;20045;-70
2023/04/20 03:54:06;;;;;;;9.15;6.82;;;;;;;11.27;69.93;99275.41;3144588;28;20044;-72
2023/04/20 03:55:39;;;;;;;10.75;6.97;;;;;;;11.29;69.93;99273.53;3144824;28;20124;-70
2023/04/20 03:57:12;;;;;;;12.75;6.85;;;;;;;11.25;69.94;99274.63;3144597;28;20044;-70
2023/04/20 03:58:44;;;;;;;10.85;6.85;;;;;;;11.29;69.73;99275.31;3144710;28;20084;-72
2023/04/20 04:00:15;;;;;;;12.55;6.43;;;;;;;11.30;70.09;99274.41;3144571;28;20048;-71
2023/04/20 04:01:47;;;;;;;10.93;6.97;;;;;;;11.32;70.06;99275.97;3141427;28;20052;-71
2023/04/20 04:03:19;;;;;;;10.98;6.70;;;;;;;11.33;69.95;99282.03;3142272;28;20060;-70
2023/04/20 04:04:51;;;;;;;10.60;6.40;;;;;;;11.30;69.92;99270.00;3123874;28;20133;-70
2023/04/20 04:06:23;;;;;;;8.82;6.28;;;;;;;11.34;69.74;99281.94;3143734;28;20045;-72
2023/04/20 04:07:54;;;;;;;10.57;6.55;;;;;;;11.35;70.05;99277.56;3144320;28;20114;-72
2023/04/20 04:09:26;;;;;;;11.35;6.90;;;;;;;11.36;70.08;99284.47;3144992;28;20048;-72
2023/04/20 04:10:59;;;;;;;10.40;6.78;;;;;;;11.26;69.75;99260.66;3144403;28;20474;-72
2023/04/20 04:12:31;;;;;;;12.70;6.60;;;;;;;11.36;69.84;99281.88;3143890;28;20079;-73
2023/04/20 04:14:03;;;;;;;11.57;6.25;;;;;;;11.39;69.86;99284.28;3144298;28;20052;-72
2023/04/20 04:15:36;;;;;;;10.85;6.40;;;;;;;11.41;69.84;99290.25;3144507;28;20048;-72
2023/04/20 04:17:08;;;;;;;10.45;6.20;;;;;;;11.41;69.99;99290.25;3144308;28;20114;-71
2023/04/20 04:18:44;;;;;;;8.52;5.80;;;;;;;11.44;69.65;99290.06;3140904;28;20079;-72
2023/04/20 04:20:15;;;;;;;10.60;5.75;;;;;;;11.47;69.96;99296.88;3136463;28;20079;-74
2023/04/20 04:21:47;;;;;;;9.85;6.35;;;;;;;11.48;69.98;99291.59;3144751;28;20502;-74
2023/04/20 04:23:19;;;;;;;12.07;5.95;;;;;;;11.50;69.60;99294.94;3144481;28;20111;-74
2023/04/20 04:24:53;;;;;;;9.43;6.43;;;;;;;11.51;69.71;99294.03;3144476;28;20044;-74
2023/04/20 04:26:26;;;;;;;9.40;6.10;;;;;;;11.54;69.40;99290.41;3143792;28;20052;-70
2023/04/20 04:27:58;;;;;;;12.35;6.60;;;;;;;11.56;69.46;99293.75;3146281;28;20045;-71
2023/04/20 04:29:30;;;;;;;12.57;6.57;;;;;;;11.59;69.54;99296.19;3141652;28;20530;-70
2023/04/20 04:31:04;;;;;;;9.40;6.18;;;;;;;11.48;69.62;99275.94;3143171;28;20053;-72
2023/04/20 04:32:36;;;;;;;9.95;6.25;;;;;;;11.63;69.48;99295.09;3143451;28;20238;-72
2023/04/20 04:34:09;;;;;;;13.05;6.32;;;;;;;11.59;69.48;99289.22;3139658;28;20107;-73
2023/04/20 04:35:42;;;;;;;13.43;6.65;;;;;;;11.66;69.62;99299.28;3141034;28;20083;-73
2023/04/20 04:37:14;;;;;;;20.00;7.10;;;;;;;11.67;69.46;99295.75;3141133;28;20052;-72
2023/04/20 04:38:46;;;;;;;38.72;20.77;;;;;;;11.70;69.57;99295.56;3140447;28;20048;-72
2023/04/20 04:40:18;;;;;;;27.75;18.88;;;;;;;11.59;69.39;99270.09;3145643;28;20157;-75
2023/04/20 04:41:56;;;;;;;24.67;13.05;;;;;;;11.38;69.47;99233.06;3134515;28;20511;-74
2023/04/20 04:43:29;;;;;;;18.55;7.60;;;;;;;11.77;69.20;99291.66;3137507;28;20102;-78
2023/04/20 04:45:03;;;;;;;9.60;6.47;;;;;;;11.80;69.44;99305.41;3142757;28;20052;-69
2023/04/20 04:46:35;;;;;;;29.02;12.75;;;;;;;11.79;69.36;99285.44;3143327;28;20052;-74
2023/04/20 04:48:08;;;;;;;14.35;8.35;;;;;;;11.85;68.84;99294.72;3137589;28;20045;-73
2023/04/20 04:49:39;;;;;;;27.95;15.65;;;;;;;11.87;68.89;99292.03;3133823;28;20147;-69
2023/04/20 04:51:11;;;;;;;12.35;6.75;;;;;;;11.89;68.83;99296.22;3140912;28;20437;-73
2023/04/20 04:52:43;;;;;;;11.40;6.65;;;;;;;11.92;68.79;99292.56;3146512;28;20483;-74
2023/04/20 04:54:15;;;;;;;11.65;6.75;;;;;;;11.94;68.51;99294.16;3146068;28;20122;-75
2023/04/20 04:55:47;;;;;;;15.00;6.70;;;;;;;11.96;67.98;99297.53;3146322;28;20048;-71
2023/04/20 04:57:20;;;;;;;11.30;7.30;;;;;;;11.99;67.94;99299.97;3146888;28;20491;-71
2023/04/20 04:58:52;;;;;;;;;;;;;;;11.95;68.26;99295.88;3140653;28;20074;-78
2023/04/20 05:00:24;;;;;;;12.23;5.97;;;;;;;11.99;68.08;99288.69;3139096;28;19928;-76
2023/04/20 05:01:56;;;;;;;16.43;6.67;;;;;;;12.02;67.89;99297.16;3142721;28;20147;-73
2023/04/20 05:03:28;;;;;;;16.95;6.25;;;;;;;12.07;67.81;99294.28;3146377;28;20060;-72
2023/04/20 05:05:00;;;;;;;10.00;6.93;;;;;;;12.10;67.75;99301.06;3141134;28;20154;-74
2023/04/20 05:06:32;;;;;;;13.02;6.15;;;;;;;12.11;67.67;99295.78;3146469;28;20056;-71
2023/04/20 05:08:04;;;;;;;8.73;6.00;;;;;;;12.17;67.31;99297.19;3146302;28;20063;-73
2023/04/20 05:09:36;;;;;;;15.65;6.10;;;;;;;12.20;67.42;99297.84;3135056;28;20577;-73
2023/04/20 05:11:08;;;;;;;11.35;6.60;;;;;;;12.23;67.02;99296.81;3133374;28;20110;-71
2023/04/20 05:12:42;;;;;;;9.85;6.22;;;;;;;12.26;66.82;99300.09;3143371;28;20585;-74
2023/04/20 05:14:12;;;;;;;;;;;;;;;12.24;67.02;99301.09;3139510;28;20055;-72
2023/04/20 05:15:44;;;;;;;9.07;5.95;;;;;;;12.26;66.88;99304.47;3142463;28;20393;-74
2023/04/20 05:17:16;;;;;;;10.85;5.78;;;;;;;12.31;66.70;99306.81;3145919;28;20048;-73
2023/04/20 05:18:48;;;;;;;10.57;6.20;;;;;;;12.36;66.55;99307.34;3145623;28;20057;-73
2023/04/20 05:20:20;;;;;;;14.95;6.38;;;;;;;12.39;66.30;99302.78;3136123;28;20080;-75
2023/04/20 05:21:52;;;;;;;11.48;6.03;;;;;;;12.43;66.36;99308.69;3142378;28;20041;-74
2023/04/20 05:23:24;;;;;;;9.57;5.30;;;;;;;12.46;65.96;99311.94;3146281;28;20052;-79
2023/04/20 05:24:55;;;;;;;10.50;5.53;;;;;;;12.49;65.83;99306.53;3146104;28;20052;-74
2023/04/20 05:26:27;;;;;;;15.07;6.00;;;;;;;12.55;66.23;99310.53;3145859;28;20052;-74
2023/04/20 05:28:00;;;;;;;12.48;6.85;;;;;;;12.60;65.63;99312.84;3142577;28;20056;-73
2023/04/20 05:29:31;;;;;;;10.05;5.63;;;;;;;12.63;65.74;99315.28;3141562;28;20057;-71
2023/04/20 05:31:03;;;;;;;10.90;5.95;;;;;;;12.66;65.72;99315.97;3145906;28;20072;-71
2023/04/20 05:32:35;;;;;;;7.90;5.10;;;;;;;12.59;65.51;99290.28;3146414;28;20052;-71
2023/04/20 05:34:07;;;;;;;13.77;5.38;;;;;;;12.71;65.14;99313.03;3138555;28;20415;-71
2023/04/20 05:35:40;;;;;;;10.98;5.78;;;;;;;12.74;65.19;99318.09;3133782;28;20059;-70
2023/04/20 05:37:12;;;;;;;10.90;6.50;;;;;;;12.77;65.15;99315.28;3137576;28;20807;-75
2023/04/20 05:38:43;;;;;;;11.10;5.63;;;;;;;12.79;64.85;99310.81;3137030;28;20063;-78
2023/04/20 05:40:15;;;;;;;9.45;5.43;;;;;;;12.83;64.89;99308.84;3142477;28;20049;-77
2023/04/20 05:41:47;;;;;;;11.38;5.30;;;;;;;12.86;64.58;99314.69;3136706;28;20045;-79
2023/04/20 05:43:21;;;;;;;8.05;5.13;;;;;;;12.89;64.47;99308.44;3141562;28;20495;-78
2023/04/20 05:44:52;;;;;;;;;;;;;;;12.85;64.85;99307.81;3141050;28;20044;-76
2023/04/20 05:46:28;;;;;;;11.95;6.20;;;;;;;12.85;64.67;99301.75;3140031;28;19924;-73
2023/04/20 05:48:00;;;;;;;7.93;4.93;;;;;;;12.94;64.46;99312.47;3141675;28;20048;-74
2023/04/20 05:49:32;;;;;;;10.38;6.43;;;;;;;12.90;64.40;99297.91;3139923;28;20060;-79
2023/04/20 05:51:05;;;;;;;9.82;5.20;;;;;;;13.06;64.08;99310.00;3138062;28;20165;-78
2023/04/20 05:52:37;;;;;;;12.93;5.70;;;;;;;13.11;64.02;99310.56;3131642;28;20094;-75
2023/04/20 05:54:09;;;;;;;12.55;5.72;;;;;;;13.18;63.80;99307.44;3135692;28;20118;-72
2023/04/20 05:55:42;;;;;;;9.02;5.97;;;;;;;13.26;63.79;99307.00;3144384;28;20063;-76
2023/04/20 05:57:14;;;;;;;12.77;5.55;;;;;;;13.31;63.53;99299.72;3134424;28;20510;-71
2023/04/20 05:58:48;;;;;;;12.85;5.60;;;;;;;13.38;62.74;99305.38;3134033;28;20088;-71
2023/04/20 06:00:21;;;;;;;12.43;6.00;;;;;;;13.41;62.67;99308.63;3145520;28;20067;-73
2023/04/20 06:01:53;;;;;;;10.25;5.60;;;;;;;13.32;62.75;99295.31;3141947;28;20136;-77
2023/04/20 06:03:25;;;;;;;7.95;5.43;;;;;;;13.50;62.37;99303.75;3132819;28;20542;-69
2023/04/20 06:04:57;;;;;;;7.57;5.25;;;;;;;13.53;62.31;99299.16;3139368;28;20052;-78
2023/04/20 06:06:29;;;;;;;11.13;4.95;;;;;;;13.65;61.90;99313.19;3143813;28;20060;-75
2023/04/20 06:08:01;;;;;;;7.88;4.82;;;;;;;13.75;61.84;99308.19;3146133;28;20579;-75
2023/04/20 06:09:32;;;;;;;12.35;5.30;;;;;;;13.81;61.19;99313.88;3145398;28;20537;-73
2023/04/20 06:11:04;;;;;;;7.60;4.55;;;;;;;13.87;60.85;99316.09;3139977;28;20049;-73
2023/04/20 06:12:37;;;;;;;10.02;5.03;;;;;;;13.97;60.89;99313.69;3143339;28;20080;-73
2023/04/20 06:14:10;;;;;;;14.45;5.25;;;;;;;14.07;60.74;99309.50;3145441;28;20040;-77
2023/04/20 06:15:42;;;;;;;12.73;5.25;;;;;;;14.19;60.20;99309.63;3137061;28;20056;-72
2023/04/20 06:17:14;;;;;;;12.25;6.38;;;;;;;14.27;59.96;99313.41;3140957;28;20429;-77
2023/04/20 06:18:46;;;;;;;8.15;4.85;;;;;;;14.36;59.54;99318.97;3142981;28;20178;-76
2023/04/20 06:20:19;;;;;;;8.05;5.13;;;;;;;14.46;59.57;99325.22;3143540;28;20129;-76
2023/04/20 06:21:51;;;;;;;11.43;5.70;;;;;;;14.57;59.18;99315.72;3145870;28;20178;-75
2023/04/20 06:23:23;;;;;;;9.77;5.43;;;;;;;14.65;58.83;99312.56;3145783;28;20702;-81
2023/04/20 06:24:55;;;;;;;9.43;4.93;;;;;;;14.71;57.92;99325.25;3138948;28;20052;-78
2023/04/20 06:26:27;;;;;;;8.75;4.72;;;;;;;14.78;57.74;99315.16;3145628;28;20060;-79
2023/04/20 06:27:59;;;;;;;8.52;4.30;;;;;;;14.86;57.86;99315.47;3144747;28;20140;-73
2023/04/20 06:29:32;;;;;;;7.53;4.82;;;;;;;14.81;57.54;99296.59;3140309;28;20063;-78
2023/04/20 06:31:05;;;;;;;7.43;4.97;;;;;;;14.97;57.09;99318.19;3143348;28;20389;-77
2023/04/20 06:32:37;;;;;;;8.27;4.50;;;;;;;14.98;57.06;99319.84;3140506;28;20049;-75
2023/04/20 06:34:09;;;;;;;7.00;4.57;;;;;;;14.96;56.41;99303.38;3141602;28;20124;-77
2023/04/20 06:35:41;;;;;;;10.32;4.40;;;;;;;15.03;56.55;99319.53;3142436;28;20127;-73
2023/04/20 06:37:13;;;;;;;8.07;4.53;;;;;;;15.02;56.59;99317.84;3138904;28;20049;-74
2023/04/20 06:38:45;;;;;;;7.85;4.43;;;;;;;15.07;56.63;99310.47;3133191;28;20049;-75
2023/04/20 06:40:17;;;;;;;7.80;4.65;;;;;;;15.09;56.48;99310.38;3139300;28;20052;-77
2023/04/20 06:41:49;;;;;;;7.35;4.93;;;;;;;15.15;56.41;99310.78;3143565;28;20093;-75
2023/04/20 06:43:21;;;;;;;11.07;4.97;;;;;;;15.16;56.22;99307.19;3135838;28;20063;-76
2023/04/20 06:44:55;;;;;;;7.65;4.88;;;;;;;15.24;56.22;99312.72;3145010;28;20052;-70
2023/04/20 06:46:27;;;;;;;12.73;5.03;;;;;;;15.27;56.30;99295.94;3137110;28;20048;-71
2023/04/20 06:47:59;;;;;;;8.30;5.25;;;;;;;15.35;55.85;99298.84;3140851;28;20118;-72
2023/04/20 06:49:31;;;;;;;13.10;5.63;;;;;;;15.43;55.61;99306.97;3136159;28;20041;-73
2023/04/20 06:51:03;;;;;;;8.70;4.68;;;;;;;15.44;55.03;99298.19;3133251;28;20122;-75
2023/04/20 06:52:35;;;;;;;11.77;4.57;;;;;;;15.50;54.93;99307.38;3139079;28;20259;-73
2023/04/20 06:54:07;;;;;;;9.52;4.93;;;;;;;15.58;54.56;99305.00;3136011;28;20049;-73
2023/04/20 06:55:39;;;;;;;6.35;4.68;;;;;;;15.67;54.00;99314.00;3120439;28;20053;-70
2023/04/20 06:57:11;;;;;;;11.40;5.72;;;;;;;15.74;53.59;99306.56;3143563;28;20056;-76
2023/04/20 06:58:43;;;;;;;9.50;4.85;;;;;;;15.79;53.21;99302.63;3144758;28;20071;-76
2023/04/20 07:00:17;;;;;;;6.72;4.50;;;;;;;15.85;53.09;99301.31;3145157;28;20048;-77
2023/04/20 07:01:50;;;;;;;7.22;4.55;;;;;;;15.90;53.11;99307.06;3140888;28;20051;-77
2023/04/20 07:03:22;;;;;;;11.65;4.85;;;;;;;15.97;53.17;99300.41;3141524;28;20143;-77
2023/04/20 07:04:54;;;;;;;12.40;5.15;;;;;;;16.09;53.38;99309.13;3136050;28;20041;-76
2023/04/20 07:06:26;;;;;;;9.75;5.45;;;;;;;16.22;53.33;99306.44;3132798;28;20061;-76
2023/04/20 07:07:58;;;;;;;8.60;4.65;;;;;;;16.15;52.80;99278.00;3139871;28;20044;-76
2023/04/20 07:09:30;;;;;;;6.05;4.55;;;;;;;16.46;52.12;99312.44;3143829;28;20076;-75
2023/04/20 07:11:02;;;;;;;8.25;4.70;;;;;;;16.55;52.06;99301.19;3144683;28;20054;-73